createdAt,value
2023-04-06T00:00:27.568Z,3.11
2023-04-06T00:02:57.329Z,3.42
2023-04-06T00:05:31.674Z,3.63
2023-04-06T00:08:02.139Z,3.49
2023-04-06T00:10:31.858Z,2.85
2023-04-06T00:13:02.204Z,2.11
2023-04-06T00:15:32.005Z,2.66
2023-04-06T00:18:01.691Z,2.30
2023-04-06T00:20:34.060Z,2.38
2023-04-06T00:23:03.739Z,2.65
2023-04-06T00:25:33.399Z,3.27
2023-04-06T00:28:03.100Z,3.79
2023-04-06T00:30:32.808Z,4.02
2023-04-06T00:33:02.572Z,3.00
2023-04-06T00:35:34.962Z,3.62
2023-04-06T00:38:04.694Z,3.48
2023-04-06T00:40:35.967Z,2.71
2023-04-06T00:43:05.941Z,2.69
2023-04-06T00:45:36.330Z,2.80
2023-04-06T00:48:06.427Z,2.87
2023-04-06T00:50:39.073Z,2.83
2023-04-06T00:53:08.745Z,2.86
2023-04-06T00:55:38.402Z,3.22
2023-04-06T00:58:09.411Z,1.96
2023-04-06T01:00:48.177Z,2.54
2023-04-06T01:03:21.314Z,2.99
2023-04-06T01:05:59.328Z,2.53
2023-04-06T01:08:34.901Z,2.51
2023-04-06T01:11:18.434Z,2.92
2023-04-06T01:13:50.200Z,2.27
2023-04-06T01:16:28.567Z,1.79
2023-04-06T01:19:19.372Z,1.68
2023-04-06T01:21:55.120Z,1.64
2023-04-06T01:24:47.840Z,1.66
2023-04-06T01:27:49.625Z,1.83
2023-04-06T01:30:24.819Z,1.46
2023-04-06T01:32:57.914Z,0.95
2023-04-06T01:35:50.206Z,0.65
2023-04-06T01:38:22.915Z,0.98
2023-04-06T01:40:55.836Z,0.75
2023-04-06T01:43:27.643Z,0.83
2023-04-06T01:46:07.802Z,0.49
2023-04-06T01:48:40.251Z,0.61
2023-04-06T01:51:22.304Z,0.44
2023-04-06T01:53:57.579Z,0.54
2023-04-06T01:56:38.572Z,0.55
2023-04-06T01:59:22.055Z,0.45
2023-04-06T02:01:51.963Z,0.25
2023-04-06T02:04:22.484Z,0.23
2023-04-06T02:07:00.111Z,0.25
2023-04-06T02:09:32.372Z,1.06
2023-04-06T02:12:05.464Z,1.47
2023-04-06T02:14:37.024Z,1.15
2023-04-06T02:17:07.437Z,0.45
2023-04-06T02:19:37.085Z,1.51
2023-04-06T02:22:06.989Z,1.19
2023-04-06T02:24:36.764Z,1.33
2023-04-06T02:27:09.181Z,1.26
2023-04-06T02:29:38.819Z,0.90
2023-04-06T02:32:09.297Z,1.48
2023-04-06T02:34:39.010Z,1.46
2023-04-06T02:37:09.100Z,1.02
2023-04-06T02:39:39.621Z,1.04
2023-04-06T02:42:16.367Z,0.60
2023-04-06T02:44:47.548Z,0.88
2023-04-06T02:47:17.536Z,0.46
2023-04-06T02:49:51.105Z,0.07
2023-04-06T02:52:21.670Z,0.57
2023-04-06T02:54:52.265Z,0.40
2023-04-06T02:57:30.761Z,1.10
2023-04-06T03:00:00.621Z,0.88
2023-04-06T03:02:38.249Z,0.34
2023-04-06T03:05:12.583Z,-0.15
2023-04-06T03:07:45.809Z,-0.24
2023-04-06T03:10:22.613Z,-0.23
2023-04-06T03:12:55.491Z,0.42
2023-04-06T03:15:27.851Z,0.54
2023-04-06T03:18:08.290Z,0.67
2023-04-06T03:20:43.420Z,0.46
2023-04-06T03:23:13.741Z,0.46
2023-04-06T03:25:45.581Z,0.21
2023-04-06T03:28:21.742Z,0.14
2023-04-06T03:31:00.892Z,-0.02
2023-04-06T03:33:49.505Z,-0.42
2023-04-06T03:36:32.988Z,-0.46
2023-04-06T03:39:03.499Z,-0.62
2023-04-06T03:41:36.361Z,-0.33
2023-04-06T03:44:16.136Z,-0.34
2023-04-06T03:46:47.508Z,-0.68
2023-04-06T03:49:17.521Z,-0.25
2023-04-06T03:51:51.094Z,0.04
2023-04-06T03:54:20.759Z,-0.27
2023-04-06T03:56:50.497Z,-0.55
2023-04-06T03:59:22.842Z,-0.49
2023-04-06T04:01:56.529Z,-0.80
2023-04-06T04:04:27.006Z,0.06
2023-04-06T04:06:56.724Z,0.19
2023-04-06T04:09:29.180Z,-0.31
2023-04-06T04:11:59.407Z,-0.08
2023-04-06T04:14:32.128Z,0.45
2023-04-06T04:17:01.806Z,0.41
2023-04-06T04:19:31.452Z,-0.25
2023-04-06T04:22:01.200Z,-0.05
2023-04-06T04:24:36.607Z,-0.01
2023-04-06T04:27:06.720Z,0.02
2023-04-06T04:29:39.937Z,0.15
2023-04-06T04:32:12.575Z,-0.08
2023-04-06T04:34:43.536Z,-0.69
2023-04-06T04:37:20.733Z,-0.16
2023-04-06T04:39:57.395Z,0.15
2023-04-06T04:42:27.185Z,-0.13
2023-04-06T04:45:02.720Z,0.35
2023-04-06T04:47:39.773Z,0.37
2023-04-06T04:50:11.418Z,-0.12
2023-04-06T04:52:44.386Z,-0.96
2023-04-06T04:55:28.897Z,-0.64
2023-04-06T04:58:03.608Z,0.48
2023-04-06T05:00:50.839Z,-0.18
2023-04-06T05:03:25.888Z,-0.86
2023-04-06T05:06:17.302Z,0.16
2023-04-06T05:08:47.560Z,0.20
2023-04-06T05:11:17.637Z,0.50
2023-04-06T05:13:52.321Z,1.35
2023-04-06T05:16:28.945Z,1.57
2023-04-06T05:19:02.304Z,1.71
2023-04-06T05:21:40.655Z,1.07
2023-04-06T05:24:11.469Z,1.89
2023-04-06T05:26:42.050Z,1.79
2023-04-06T05:29:21.270Z,1.92
2023-04-06T05:31:54.722Z,2.21
2023-04-06T05:34:24.647Z,1.72
2023-04-06T05:36:54.831Z,1.62
2023-04-06T05:39:27.530Z,2.33
2023-04-06T05:41:57.784Z,2.23
2023-04-06T05:44:37.294Z,2.47
2023-04-06T05:47:16.803Z,1.99
2023-04-06T05:49:49.238Z,1.90
2023-04-06T05:52:27.000Z,2.53
2023-04-06T05:54:57.718Z,3.06
2023-04-06T05:57:28.754Z,2.70
2023-04-06T05:59:59.097Z,3.43
2023-04-06T06:02:44.830Z,3.82
2023-04-06T06:05:20.928Z,4.32
2023-04-06T06:07:51.764Z,3.20
2023-04-06T06:10:21.591Z,2.71
2023-04-06T06:12:51.307Z,2.20
2023-04-06T06:15:21.830Z,2.52
2023-04-06T06:17:54.591Z,3.40
2023-04-06T06:20:24.307Z,3.48
2023-04-06T06:22:54.083Z,3.04
2023-04-06T06:25:25.943Z,2.84
2023-04-06T06:27:56.033Z,3.14
2023-04-06T06:30:25.781Z,2.17
2023-04-06T06:32:58.165Z,2.86
2023-04-06T06:35:28.664Z,3.88
2023-04-06T06:37:58.612Z,4.03
2023-04-06T06:40:30.528Z,3.82
2023-04-06T06:43:00.405Z,3.85
2023-04-06T06:45:37.597Z,3.87
2023-04-06T06:48:10.082Z,4.22
2023-04-06T06:50:40.986Z,4.54
2023-04-06T06:53:10.718Z,4.28
2023-04-06T06:55:40.406Z,3.82
2023-04-06T06:58:10.363Z,4.52
2023-04-06T07:00:40.052Z,5.23
2023-04-06T07:03:13.230Z,5.71
2023-04-06T07:05:53.995Z,5.93
2023-04-06T07:08:24.927Z,5.67
2023-04-06T07:10:57.487Z,5.53
2023-04-06T07:13:28.745Z,5.38
2023-04-06T07:16:01.181Z,6.24
2023-04-06T07:18:36.251Z,5.81
2023-04-06T07:21:08.626Z,5.85
2023-04-06T07:23:40.874Z,6.10
2023-04-06T07:26:10.917Z,6.52
2023-04-06T07:28:40.972Z,6.34
2023-04-06T07:31:11.268Z,6.69
2023-04-06T07:33:43.838Z,5.91
2023-04-06T07:36:13.859Z,5.78
2023-04-06T07:38:43.622Z,5.60
2023-04-06T07:41:13.374Z,5.70
2023-04-06T07:43:43.472Z,6.95
2023-04-06T07:46:13.374Z,7.42
2023-04-06T07:48:46.068Z,8.22
2023-04-06T07:51:16.128Z,8.29
2023-04-06T07:53:48.187Z,8.50
2023-04-06T07:56:18.158Z,8.84
2023-04-06T07:58:48.214Z,8.10
2023-04-06T08:01:17.892Z,8.59
2023-04-06T08:03:50.286Z,8.18
2023-04-06T08:06:20.309Z,7.48
2023-04-06T08:08:49.985Z,8.37
2023-04-06T08:11:19.693Z,8.96
2023-04-06T08:13:49.559Z,8.43
2023-04-06T08:16:19.314Z,8.68
2023-04-06T08:18:51.643Z,8.57
2023-04-06T08:21:21.612Z,7.82
2023-04-06T08:23:51.497Z,7.30
2023-04-06T08:26:21.178Z,7.82
2023-04-06T08:28:51.023Z,7.77
2023-04-06T08:31:20.748Z,7.42
2023-04-06T08:33:52.988Z,7.12
2023-04-06T08:36:24.033Z,7.04
2023-04-06T08:38:55.019Z,7.57
2023-04-06T08:41:24.834Z,7.14
2023-04-06T08:44:01.036Z,7.61
2023-04-06T08:46:32.912Z,7.63
2023-04-06T08:49:07.967Z,8.48
2023-04-06T08:51:41.795Z,8.26
2023-04-06T08:54:11.578Z,8.05
2023-04-06T08:56:43.128Z,8.25
2023-04-06T08:59:13.679Z,8.76
2023-04-06T09:01:47.091Z,9.29
2023-04-06T09:04:20.218Z,9.46
2023-04-06T09:06:51.104Z,9.47
2023-04-06T09:09:24.206Z,9.40
2023-04-06T09:11:56.220Z,9.92
2023-04-06T09:14:38.868Z,9.14
2023-04-06T09:17:09.149Z,10.17
2023-04-06T09:19:51.356Z,10.12
2023-04-06T09:22:21.969Z,9.65
2023-04-06T09:24:53.686Z,10.28
2023-04-06T09:27:34.144Z,10.45
2023-04-06T09:30:09.424Z,10.51
2023-04-06T09:32:49.466Z,10.50
2023-04-06T09:35:23.670Z,11.19
2023-04-06T09:37:56.500Z,11.38
2023-04-06T09:40:26.650Z,11.91
2023-04-06T09:42:58.738Z,10.67
2023-04-06T09:45:29.467Z,11.28
2023-04-06T09:47:59.932Z,11.78
2023-04-06T09:50:34.658Z,11.82
2023-04-06T09:53:06.127Z,12.20
2023-04-06T09:55:41.440Z,11.83
2023-04-06T09:58:14.001Z,11.56
2023-04-06T10:00:48.339Z,11.97
2023-04-06T10:03:25.385Z,11.89
2023-04-06T10:05:59.873Z,12.42
2023-04-06T10:08:33.176Z,10.63
2023-04-06T10:11:04.340Z,11.89
2023-04-06T10:13:33.980Z,11.29
2023-04-06T10:16:04.245Z,11.96
2023-04-06T10:18:34.337Z,12.39
2023-04-06T10:21:11.406Z,11.91
2023-04-06T10:23:45.785Z,12.42
2023-04-06T10:26:18.408Z,12.21
2023-04-06T10:28:49.882Z,12.10
2023-04-06T10:31:28.578Z,13.00
2023-04-06T10:33:59.462Z,12.11
2023-04-06T10:36:36.184Z,11.26
2023-04-06T10:39:08.052Z,11.43
2023-04-06T10:41:38.740Z,12.04
2023-04-06T10:44:08.665Z,11.34
2023-04-06T10:46:38.533Z,12.43
2023-04-06T10:49:15.700Z,12.65
2023-04-06T10:51:47.939Z,11.76
2023-04-06T10:54:17.700Z,12.77
2023-04-06T10:56:47.344Z,12.83
2023-04-06T10:59:17.228Z,12.35
2023-04-06T11:01:48.817Z,13.13
2023-04-06T11:04:21.082Z,12.44
2023-04-06T11:06:56.188Z,12.04
2023-04-06T11:09:29.978Z,12.37
2023-04-06T11:12:00.275Z,11.58
2023-04-06T11:14:30.329Z,13.11
2023-04-06T11:17:00.140Z,13.15
2023-04-06T11:19:29.947Z,13.03
2023-04-06T11:22:10.896Z,12.18
2023-04-06T11:24:40.648Z,12.88
2023-04-06T11:27:10.363Z,13.05
2023-04-06T11:29:42.014Z,13.30
2023-04-06T11:32:11.736Z,12.04
2023-04-06T11:34:42.900Z,12.26
2023-04-06T11:37:15.912Z,12.53
2023-04-06T11:39:53.258Z,12.74
2023-04-06T11:42:27.378Z,11.89
2023-04-06T11:44:58.244Z,12.12
2023-04-06T11:47:32.454Z,13.19
2023-04-06T11:50:10.298Z,13.28
2023-04-06T11:52:43.228Z,12.91
2023-04-06T11:55:17.662Z,12.72
2023-04-06T11:57:48.095Z,12.73
2023-04-06T12:00:19.397Z,12.37
2023-04-06T12:02:50.113Z,12.86
2023-04-06T12:05:20.013Z,13.42
2023-04-06T12:07:52.235Z,12.48
2023-04-06T12:10:21.977Z,13.00
2023-04-06T12:12:51.674Z,12.88
2023-04-06T12:15:21.492Z,13.48
2023-04-06T12:17:51.234Z,13.21
2023-04-06T12:20:25.842Z,12.72
2023-04-06T12:22:59.660Z,12.28
2023-04-06T12:25:30.587Z,12.57
2023-04-06T12:28:00.910Z,12.61
2023-04-06T12:30:31.391Z,12.78
2023-04-06T12:33:01.428Z,12.55
2023-04-06T12:35:31.372Z,13.35
2023-04-06T12:38:03.654Z,13.06
2023-04-06T12:40:33.295Z,12.83
2023-04-06T12:43:03.021Z,13.43
2023-04-06T12:45:34.243Z,13.96
2023-04-06T12:48:04.129Z,13.78
2023-04-06T12:50:33.816Z,13.23
2023-04-06T12:53:06.294Z,13.05
2023-04-06T12:55:37.854Z,12.59
2023-04-06T12:58:07.778Z,12.40
2023-04-06T13:00:38.056Z,12.63
2023-04-06T13:03:07.813Z,13.03
2023-04-06T13:05:37.586Z,12.82
2023-04-06T13:08:09.834Z,13.35
2023-04-06T13:10:39.473Z,13.12
2023-04-06T13:13:09.105Z,13.26
2023-04-06T13:15:38.816Z,13.67
2023-04-06T13:18:08.733Z,13.05
2023-04-06T13:20:38.653Z,13.04
2023-04-06T13:23:10.888Z,13.14
2023-04-06T13:25:40.897Z,13.51
2023-04-06T13:28:11.656Z,13.24
2023-04-06T13:30:41.555Z,13.26
2023-04-06T13:33:11.278Z,12.90
2023-04-06T13:35:41.002Z,13.15
2023-04-06T13:38:13.290Z,13.29
2023-04-06T13:40:43.486Z,12.99
2023-04-06T13:43:13.164Z,13.08
2023-04-06T13:45:43.066Z,13.41
2023-04-06T13:48:12.747Z,13.12
2023-04-06T13:50:42.531Z,13.32
2023-04-06T13:53:14.765Z,13.15
2023-04-06T13:55:44.704Z,13.86
2023-04-06T13:58:14.374Z,13.85
2023-04-06T14:00:44.172Z,14.38
2023-04-06T14:03:14.023Z,13.77
2023-04-06T14:05:44.030Z,13.37
2023-04-06T14:08:16.545Z,13.45
2023-04-06T14:10:46.330Z,13.13
2023-04-06T14:13:16.647Z,13.52
2023-04-06T14:15:46.581Z,13.58
2023-04-06T14:18:16.364Z,13.39
2023-04-06T14:20:45.994Z,14.04
2023-04-06T14:23:18.420Z,13.85
2023-04-06T14:25:48.079Z,14.21
2023-04-06T14:28:18.610Z,14.29
2023-04-06T14:30:48.674Z,14.05
2023-04-06T14:33:18.525Z,13.95
2023-04-06T14:35:48.226Z,13.87
2023-04-06T14:38:20.667Z,14.18
2023-04-06T14:40:51.162Z,13.66
2023-04-06T14:43:20.998Z,13.55
2023-04-06T14:45:50.876Z,13.91
2023-04-06T14:48:20.590Z,13.15
2023-04-06T14:50:56.105Z,13.61
2023-04-06T14:53:28.991Z,13.45
2023-04-06T14:55:59.001Z,13.58
2023-04-06T14:58:29.296Z,13.85
2023-04-06T15:01:00.453Z,13.72
2023-04-06T15:03:30.823Z,13.70
2023-04-06T15:06:01.348Z,13.88
2023-04-06T15:08:33.678Z,13.90
2023-04-06T15:11:03.527Z,13.86
2023-04-06T15:13:33.179Z,13.37
2023-04-06T15:16:02.889Z,14.13
2023-04-06T15:18:32.575Z,14.04
2023-04-06T15:21:02.427Z,14.06
2023-04-06T15:23:35.490Z,13.47
2023-04-06T15:26:05.327Z,13.65
2023-04-06T15:28:35.164Z,13.62
2023-04-06T15:31:07.415Z,13.33
2023-04-06T15:33:39.102Z,13.93
2023-04-06T15:36:12.381Z,14.37
2023-04-06T15:38:44.615Z,13.44
2023-04-06T15:41:15.136Z,13.42
2023-04-06T15:43:45.052Z,13.56
2023-04-06T15:46:14.910Z,13.16
2023-04-06T15:48:45.706Z,12.75
2023-04-06T15:51:16.758Z,13.30
2023-04-06T15:53:49.274Z,13.67
2023-04-06T15:56:18.909Z,13.50
2023-04-06T15:58:48.719Z,13.79
2023-04-06T16:01:19.819Z,13.32
2023-04-06T16:03:49.757Z,13.33
2023-04-06T16:06:19.676Z,13.30
2023-04-06T16:08:51.939Z,12.93
2023-04-06T16:11:21.831Z,13.72
2023-04-06T16:13:55.256Z,13.64
2023-04-06T16:16:25.647Z,13.84
2023-04-06T16:18:55.490Z,13.10
2023-04-06T16:21:25.170Z,13.54
2023-04-06T16:23:59.697Z,13.50
2023-04-06T16:26:29.958Z,14.00
2023-04-06T16:29:00.941Z,13.62
2023-04-06T16:31:30.915Z,13.35
2023-04-06T16:34:01.219Z,13.48
2023-04-06T16:36:33.882Z,12.96
2023-04-06T16:39:06.513Z,13.17
2023-04-06T16:41:36.709Z,13.10
2023-04-06T16:44:06.349Z,12.99
2023-04-06T16:46:38.520Z,13.23
2023-04-06T16:49:08.701Z,12.72
2023-04-06T16:51:38.407Z,12.96
2023-04-06T16:54:10.718Z,12.89
2023-04-06T16:56:40.434Z,12.13
2023-04-06T16:59:10.964Z,12.48
2023-04-06T17:01:40.793Z,12.48
2023-04-06T17:04:10.723Z,12.80
2023-04-06T17:06:40.550Z,12.31
2023-04-06T17:09:13.062Z,12.24
2023-04-06T17:11:46.847Z,12.52
2023-04-06T17:14:16.941Z,11.81
2023-04-06T17:16:46.653Z,12.14
2023-04-06T17:19:16.487Z,12.20
2023-04-06T17:21:46.172Z,11.24
2023-04-06T17:24:18.435Z,11.92
2023-04-06T17:26:48.137Z,11.40
2023-04-06T17:29:17.863Z,10.69
2023-04-06T17:31:47.920Z,10.17
2023-04-06T17:34:17.740Z,10.55
2023-04-06T17:36:47.512Z,10.63
2023-04-06T17:39:19.768Z,10.92
2023-04-06T17:41:49.481Z,11.46
2023-04-06T17:44:19.257Z,10.70
2023-04-06T17:46:49.015Z,10.04
2023-04-06T17:49:18.750Z,9.85
2023-04-06T17:51:48.389Z,9.28
2023-04-06T17:54:20.772Z,9.32
2023-04-06T17:56:52.065Z,9.58
2023-04-06T17:59:21.799Z,9.18
2023-04-06T18:01:51.526Z,8.92
2023-04-06T18:04:21.431Z,9.05
2023-04-06T18:06:51.593Z,9.12
2023-04-06T18:09:23.882Z,9.96
2023-04-06T18:11:53.720Z,9.12
2023-04-06T18:14:23.444Z,9.88
2023-04-06T18:16:53.256Z,9.81
2023-04-06T18:19:22.917Z,9.95
2023-04-06T18:21:52.605Z,10.14
2023-04-06T18:24:40.608Z,8.57
2023-04-06T18:27:13.110Z,7.73
2023-04-06T18:29:44.423Z,8.18
2023-04-06T18:32:14.853Z,7.77
2023-04-06T18:34:45.575Z,7.71
2023-04-06T18:37:16.300Z,7.02
2023-04-06T18:39:48.637Z,6.48
2023-04-06T18:42:19.606Z,6.22
2023-04-06T18:44:49.303Z,6.10
2023-04-06T18:47:19.098Z,6.32
2023-04-06T18:49:50.173Z,6.03
2023-04-06T18:52:20.048Z,5.98
2023-04-06T18:54:52.281Z,5.75
2023-04-06T18:57:22.166Z,6.00
2023-04-06T18:59:51.868Z,5.80
2023-04-06T19:02:21.647Z,5.70
2023-04-06T19:04:52.140Z,5.75
2023-04-06T19:07:22.413Z,5.19
2023-04-06T19:09:54.857Z,4.93
2023-04-06T19:12:24.562Z,5.38
2023-04-06T19:14:54.501Z,5.40
2023-04-06T19:17:24.460Z,5.51
2023-04-06T19:19:55.489Z,5.40
2023-04-06T19:22:25.150Z,5.28
2023-04-06T19:24:57.460Z,5.24
2023-04-06T19:27:27.125Z,4.88
2023-04-06T19:29:56.780Z,5.02
2023-04-06T19:32:26.634Z,4.49
2023-04-06T19:34:56.358Z,4.40
2023-04-06T19:37:26.017Z,4.59
2023-04-06T19:39:58.294Z,4.35
2023-04-06T19:42:28.268Z,4.16
2023-04-06T19:44:58.657Z,4.23
2023-04-06T19:47:29.282Z,4.28
2023-04-06T19:50:00.033Z,4.28
2023-04-06T19:52:30.272Z,3.98
2023-04-06T19:55:03.761Z,4.20
2023-04-06T19:57:33.497Z,4.05
2023-04-06T20:00:03.202Z,4.04
2023-04-06T20:02:39.482Z,4.16
2023-04-06T20:05:09.907Z,4.18
2023-04-06T20:07:41.655Z,3.87
2023-04-06T20:10:14.514Z,3.88
2023-04-06T20:12:44.468Z,3.82
2023-04-06T20:15:15.098Z,3.86
2023-04-06T20:17:45.181Z,3.72
2023-04-06T20:20:14.929Z,3.69
2023-04-06T20:22:44.959Z,3.78
2023-04-06T20:25:17.396Z,3.74
2023-04-06T20:27:47.422Z,4.06
2023-04-06T20:30:17.812Z,3.96
2023-04-06T20:32:47.546Z,4.00
2023-04-06T20:35:17.313Z,4.04
2023-04-06T20:37:46.946Z,4.16
2023-04-06T20:40:19.649Z,4.33
2023-04-06T20:42:49.493Z,4.28
2023-04-06T20:45:20.536Z,4.32
2023-04-06T20:47:50.201Z,4.40
2023-04-06T20:50:20.094Z,4.14
2023-04-06T20:52:50.067Z,4.87
2023-04-06T20:55:22.352Z,4.85
2023-04-06T20:57:51.998Z,4.99
2023-04-06T21:00:22.348Z,4.98
2023-04-06T21:02:52.198Z,4.88
2023-04-06T21:05:23.176Z,5.24
2023-04-06T21:07:53.188Z,4.71
2023-04-06T21:10:25.635Z,4.37
2023-04-06T21:12:55.489Z,4.58
2023-04-06T21:15:26.123Z,4.68
2023-04-06T21:17:56.135Z,5.14
2023-04-06T21:20:25.865Z,5.14
2023-04-06T21:22:55.547Z,4.83
2023-04-06T21:25:28.167Z,4.55
2023-04-06T21:27:57.969Z,4.59
2023-04-06T21:30:27.773Z,4.92
2023-04-06T21:32:57.488Z,4.33
2023-04-06T21:35:27.338Z,3.94
2023-04-06T21:37:56.978Z,4.62
2023-04-06T21:40:29.323Z,4.96
2023-04-06T21:42:59.024Z,4.82
2023-04-06T21:45:28.769Z,4.84
2023-04-06T21:47:58.511Z,4.79
2023-04-06T21:50:28.341Z,4.85
2023-04-06T21:52:58.107Z,4.97
2023-04-06T21:55:30.413Z,4.60
2023-04-06T21:58:00.116Z,4.65
2023-04-06T22:00:30.206Z,3.90
2023-04-06T22:03:00.188Z,3.49
2023-04-06T22:05:30.103Z,3.02
2023-04-06T22:08:02.199Z,3.08
2023-04-06T22:10:34.484Z,3.40
2023-04-06T22:13:04.189Z,3.07
2023-04-06T22:15:34.310Z,3.17
2023-04-06T22:18:04.111Z,2.98
2023-04-06T22:20:33.933Z,2.88
2023-04-06T22:23:03.848Z,3.06
2023-04-06T22:25:36.117Z,3.15
2023-04-06T22:28:06.900Z,3.25
2023-04-06T22:30:36.987Z,3.24
2023-04-06T22:33:07.561Z,3.10
2023-04-06T22:35:37.247Z,2.98
2023-04-06T22:38:06.905Z,2.65
2023-04-06T22:40:39.154Z,2.95
2023-04-06T22:43:08.897Z,2.71
2023-04-06T22:45:38.720Z,2.78
2023-04-06T22:48:08.653Z,2.93
2023-04-06T22:50:38.372Z,2.69
2023-04-06T22:53:08.049Z,2.51
2023-04-06T22:55:42.383Z,2.64
2023-04-06T22:58:12.315Z,2.33
2023-04-06T23:00:42.640Z,2.49
2023-04-06T23:03:12.491Z,2.50
2023-04-06T23:05:42.372Z,1.96
2023-04-06T23:08:12.036Z,2.20
2023-04-06T23:10:44.756Z,2.22
2023-04-06T23:13:14.432Z,2.20
2023-04-06T23:15:44.312Z,2.45
2023-04-06T23:18:14.269Z,2.41
2023-04-06T23:20:43.906Z,2.09
2023-04-06T23:23:13.544Z,2.19
2023-04-06T23:25:46.062Z,2.24
2023-04-06T23:28:15.750Z,2.16
2023-04-06T23:30:45.647Z,1.96
2023-04-06T23:33:15.768Z,2.01
2023-04-06T23:35:45.460Z,2.37
2023-04-06T23:38:15.159Z,2.47
2023-04-06T23:40:47.364Z,2.08
2023-04-06T23:43:17.387Z,2.42
2023-04-06T23:45:47.071Z,2.55
2023-04-06T23:48:16.836Z,2.15
2023-04-06T23:50:46.574Z,2.41
2023-04-06T23:53:16.203Z,2.11
2023-04-06T23:55:48.455Z,2.16
2023-04-06T23:58:18.357Z,2.16
